Time;durP1;ratioP1;P1;durP2;ratioP2;P2;SDS_P1;SDS_P2;PMS_P1;PMS_P2;Temp;Humidity;BMP_temperature;BMP_pressure;BME280_temperature;BME280_humidity;BME280_pressure;Samples;Min_cycle;Max_cycle;Signal;HPM_P1;HPM_P2
2023/06/30 00:00:21;;;;;;;4.10;1.50;;;16.70;99.90;;;;;;7349973;32;20273;-55
2023/06/30 00:04:23;;;;;;;3.72;1.50;;;16.50;99.90;;;;;;7354717;32;20143;-55
2023/06/30 00:08:25;;;;;;;3.80;1.20;;;16.30;99.90;;;;;;7344314;32;20231;-54
2023/06/30 00:12:27;;;;;;;3.58;1.95;;;16.20;99.90;;;;;;7340385;32;20469;-55
2023/06/30 00:16:31;;;;;;;4.18;1.50;;;16.00;99.90;;;;;;7346725;32;20130;-55
2023/06/30 00:20:33;;;;;;;5.25;1.92;;;15.90;99.90;;;;;;7337615;32;20516;-55
2023/06/30 00:24:35;;;;;;;5.97;1.70;;;15.80;99.90;;;;;;7350568;32;20130;-55
2023/06/30 00:28:37;;;;;;;6.00;1.67;;;15.70;99.90;;;;;;7350648;32;20723;-55
2023/06/30 00:32:39;;;;;;;7.70;2.08;;;15.60;99.90;;;;;;7351742;32;20111;-55
2023/06/30 00:36:41;;;;;;;6.90;2.05;;;15.60;99.90;;;;;;7338937;32;20209;-55
2023/06/30 00:40:42;;;;;;;4.65;1.95;;;15.50;99.90;;;;;;7355166;32;20919;-55
2023/06/30 00:44:44;;;;;;;5.68;2.00;;;15.50;99.90;;;;;;7348842;32;20842;-55
2023/06/30 00:48:49;;;;;;;5.18;2.20;;;15.50;99.90;;;;;;7349104;32;20191;-55
2023/06/30 00:52:51;;;;;;;3.72;1.83;;;15.40;99.90;;;;;;7354661;32;20131;-55
2023/06/30 00:56:52;;;;;;;7.45;2.05;;;15.40;99.90;;;;;;7338235;32;20162;-55
2023/06/30 01:01:09;;;;;;;6.18;2.12;;;15.40;99.90;;;;;;7350260;32;20139;-55
2023/06/30 01:05:28;;;;;;;6.00;2.53;;;15.40;99.90;;;;;;7345842;32;20163;-55
2023/06/30 01:09:35;;;;;;;4.78;2.05;;;15.30;99.90;;;;;;7342421;32;20520;-55
2023/06/30 01:13:38;;;;;;;10.35;2.53;;;15.30;99.90;;;;;;7345676;32;20119;-55
2023/06/30 01:17:51;;;;;;;4.37;2.20;;;15.30;99.90;;;;;;7348815;32;20217;-54
2023/06/30 01:22:00;;;;;;;5.50;2.85;;;15.40;99.90;;;;;;7344032;32;20195;-55
2023/06/30 01:26:04;;;;;;;4.95;2.80;;;15.30;99.90;;;;;;7346672;32;20598;-55
2023/06/30 01:30:06;;;;;;;5.55;2.87;;;15.30;99.90;;;;;;7348960;32;20119;-55
2023/06/30 01:34:08;;;;;;;7.68;3.17;;;15.30;99.90;;;;;;7342944;32;20107;-55
2023/06/30 01:38:10;;;;;;;7.75;2.92;;;15.30;99.90;;;;;;7355519;32;20229;-55
2023/06/30 01:42:13;;;;;;;11.18;3.85;;;15.20;99.90;;;;;;7343342;32;20106;-55
2023/06/30 01:46:15;;;;;;;7.43;5.10;;;15.20;99.90;;;;;;7328368;32;20136;-55
2023/06/30 01:50:18;;;;;;;14.02;4.68;;;15.30;99.90;;;;;;7344661;32;20112;-55
2023/06/30 01:54:20;;;;;;;6.95;5.28;;;15.20;99.90;;;;;;7347278;32;20603;-55
2023/06/30 01:58:22;;;;;;;11.95;6.43;;;15.30;99.90;;;;;;7351853;32;20448;-55
2023/06/30 02:02:24;;;;;;;7.90;6.72;;;15.30;99.90;;;;;;7349481;32;20107;-55
2023/06/30 02:06:26;;;;;;;13.55;7.20;;;15.30;99.90;;;;;;7340386;32;20182;-55
2023/06/30 02:10:29;;;;;;;10.70;8.30;;;15.50;99.90;;;;;;7342595;32;20166;-55
2023/06/30 02:14:30;;;;;;;10.43;8.68;;;15.40;99.90;;;;;;7351834;32;20315;-55
2023/06/30 02:18:32;;;;;;;10.45;8.63;;;15.40;99.90;;;;;;7345907;32;20210;-53
2023/06/30 02:22:34;;;;;;;11.63;8.57;;;15.40;99.90;;;;;;7352883;32;20499;-53
2023/06/30 02:26:36;;;;;;;11.52;7.78;;;15.40;99.90;;;;;;7351160;32;20169;-53
2023/06/30 02:30:37;;;;;;;13.85;8.05;;;15.50;99.90;;;;;;7356781;32;20107;-56
2023/06/30 02:34:39;;;;;;;12.98;8.43;;;15.40;99.90;;;;;;7354999;32;20128;-54
2023/06/30 02:38:41;;;;;;;10.57;7.65;;;15.30;99.90;;;;;;7352350;32;20233;-54
2023/06/30 02:42:42;;;;;;;12.32;7.43;;;15.40;99.90;;;;;;7347734;32;20143;-54
2023/06/30 02:46:45;;;;;;;10.40;6.65;;;15.40;99.90;;;;;;7351004;32;20262;-54
2023/06/30 02:50:46;;;;;;;12.18;7.57;;;15.40;99.90;;;;;;7343542;32;20183;-55
2023/06/30 02:54:48;;;;;;;13.20;7.97;;;15.40;99.90;;;;;;7349860;32;20218;-54
2023/06/30 02:58:50;;;;;;;12.00;7.35;;;15.40;99.90;;;;;;7351062;32;20198;-55
2023/06/30 03:02:52;;;;;;;13.43;7.57;;;15.30;99.90;;;;;;7343809;32;20305;-56
2023/06/30 03:06:54;;;;;;;10.60;7.87;;;15.30;99.90;;;;;;7356168;32;20126;-54
2023/06/30 03:10:55;;;;;;;15.85;7.82;;;15.30;99.90;;;;;;7348211;32;20502;-54
2023/06/30 03:14:57;;;;;;;12.15;7.75;;;15.30;99.90;;;;;;7356590;32;20245;-55
2023/06/30 03:18:59;;;;;;;11.60;7.40;;;15.30;99.90;;;;;;7356214;32;20148;-53
2023/06/30 03:23:01;;;;;;;13.00;7.85;;;15.30;99.90;;;;;;7355702;32;20441;-56
2023/06/30 03:27:04;;;;;;;13.82;7.68;;;15.30;99.90;;;;;;7353672;32;20199;-56
2023/06/30 03:31:05;;;;;;;16.75;7.57;;;15.30;99.90;;;;;;7344630;32;20111;-56
2023/06/30 03:35:07;;;;;;;13.30;7.28;;;15.20;99.90;;;;;;7344528;32;20135;-55
2023/06/30 03:39:09;;;;;;;9.93;7.20;;;15.20;99.90;;;;;;7353002;32;20102;-55
2023/06/30 03:43:11;;;;;;;10.20;6.47;;;15.20;99.90;;;;;;7351277;32;20194;-57
2023/06/30 03:47:13;;;;;;;12.82;5.72;;;15.30;99.90;;;;;;7353071;32;20491;-54
2023/06/30 03:51:15;;;;;;;9.90;6.20;;;15.30;99.90;;;;;;7351292;32;20104;-55
2023/06/30 03:55:16;;;;;;;12.65;6.95;;;15.30;99.90;;;;;;7354157;32;20508;-55
2023/06/30 03:59:18;;;;;;;15.52;6.53;;;15.30;99.90;;;;;;7344205;32;20537;-55
2023/06/30 04:03:20;;;;;;;10.57;5.45;;;15.30;99.90;;;;;;7346609;32;20107;-55
2023/06/30 04:07:23;;;;;;;12.75;5.43;;;15.20;99.90;;;;;;7353478;32;20825;-56
2023/06/30 04:11:25;;;;;;;10.70;5.15;;;15.10;99.90;;;;;;7347847;32;20134;-55
2023/06/30 04:15:27;;;;;;;8.15;5.05;;;15.10;99.90;;;;;;7355272;32;20542;-55
2023/06/30 04:19:28;;;;;;;11.48;4.22;;;15.10;99.90;;;;;;7351984;32;20214;-55
2023/06/30 04:23:30;;;;;;;9.90;5.00;;;15.10;99.90;;;;;;7348406;32;20200;-54
2023/06/30 04:27:32;;;;;;;7.43;4.60;;;15.10;99.90;;;;;;7354197;32;20575;-54
2023/06/30 04:31:35;;;;;;;10.38;4.60;;;15.10;99.90;;;;;;7344678;32;20282;-55
2023/06/30 04:35:37;;;;;;;9.25;4.68;;;15.10;99.90;;;;;;7347294;32;20115;-55
2023/06/30 04:39:39;;;;;;;10.38;5.30;;;15.10;99.90;;;;;;7351121;32;20169;-55
2023/06/30 04:43:43;;;;;;;8.38;4.18;;;15.00;99.90;;;;;;7345978;32;20734;-55
2023/06/30 04:47:45;;;;;;;13.10;5.20;;;15.00;99.90;;;;;;7349577;32;20130;-55
2023/06/30 04:51:47;;;;;;;13.13;4.80;;;15.10;99.90;;;;;;7355862;32;20507;-54
2023/06/30 04:55:49;;;;;;;10.27;4.72;;;15.00;99.90;;;;;;7342980;32;20115;-56
2023/06/30 04:59:51;;;;;;;10.00;4.10;;;15.10;99.90;;;;;;7343027;32;20314;-57
2023/06/30 05:03:53;;;;;;;10.25;4.07;;;15.10;99.90;;;;;;7353689;32;20772;-57
2023/06/30 05:07:55;;;;;;;9.77;3.97;;;15.10;99.90;;;;;;7355252;32;20620;-56
2023/06/30 05:11:56;;;;;;;7.75;4.10;;;15.10;99.90;;;;;;7351810;32;20554;-57
2023/06/30 05:15:58;;;;;;;12.85;3.67;;;15.10;99.90;;;;;;7353159;32;20114;-56
2023/06/30 05:20:04;;;;;;;9.20;3.30;;;15.10;99.90;;;;;;7352119;32;20127;-56
2023/06/30 05:24:06;;;;;;;7.95;3.67;;;15.10;99.90;;;;;;7351532;32;20210;-56
2023/06/30 05:28:08;;;;;;;8.23;4.03;;;15.10;99.90;;;;;;7354297;32;20127;-58
2023/06/30 05:32:10;;;;;;;7.37;3.33;;;15.20;99.90;;;;;;7353901;32;20518;-56
2023/06/30 05:36:11;;;;;;;8.95;3.37;;;15.10;99.90;;;;;;7357478;32;20808;-56
2023/06/30 05:40:13;;;;;;;7.10;3.47;;;15.10;99.90;;;;;;7355256;32;20166;-56
2023/06/30 05:44:15;;;;;;;11.48;3.72;;;15.10;99.90;;;;;;7353181;32;20122;-56
2023/06/30 05:48:17;;;;;;;7.22;2.78;;;15.20;99.90;;;;;;7352420;32;20138;-55
2023/06/30 05:52:21;;;;;;;10.25;3.03;;;15.20;99.90;;;;;;7357443;32;20166;-56
2023/06/30 05:56:23;;;;;;;10.75;3.28;;;15.90;99.90;;;;;;7353120;32;20106;-57
2023/06/30 06:00:25;;;;;;;8.43;2.55;;;16.70;99.90;;;;;;7351114;32;20146;-56
2023/06/30 06:04:26;;;;;;;8.60;3.25;;;16.90;99.90;;;;;;7355497;32;20529;-56
2023/06/30 06:08:28;;;;;;;8.60;2.80;;;17.50;99.90;;;;;;7356260;32;20137;-56
2023/06/30 06:12:30;;;;;;;7.20;2.35;;;17.60;99.90;;;;;;7351282;32;20107;-56
2023/06/30 06:16:32;;;;;;;8.40;2.53;;;17.50;99.90;;;;;;7350998;32;20193;-56
2023/06/30 06:20:34;;;;;;;7.35;2.00;;;17.80;99.90;;;;;;7349494;32;20104;-56
2023/06/30 06:24:35;;;;;;;7.20;1.98;;;18.10;99.90;;;;;;7350711;32;20107;-57
2023/06/30 06:28:37;;;;;;;7.43;2.15;;;18.20;99.90;;;;;;7352029;32;20126;-56
2023/06/30 06:32:39;;;;;;;9.50;2.47;;;18.30;99.90;;;;;;7349853;32;20142;-56
2023/06/30 06:36:41;;;;;;;5.82;2.08;;;18.00;99.90;;;;;;7352089;32;20206;-58
2023/06/30 06:40:46;;;;;;;9.20;2.30;;;17.60;99.90;;;;;;7352538;32;20202;-57
2023/06/30 06:44:47;;;;;;;13.32;2.28;;;17.50;99.90;;;;;;7353033;32;20501;-57
2023/06/30 06:48:49;;;;;;;6.47;1.90;;;17.20;99.90;;;;;;7355181;32;20186;-56
2023/06/30 06:52:51;;;;;;;5.82;2.10;;;17.10;99.90;;;;;;7346545;32;20131;-57
2023/06/30 06:56:53;;;;;;;9.38;1.85;;;16.90;99.90;;;;;;7349319;32;20265;-57
2023/06/30 07:00:55;;;;;;;6.57;2.10;;;16.70;99.90;;;;;;7350208;32;20115;-57
2023/06/30 07:04:57;;;;;;;6.97;1.92;;;16.60;99.90;;;;;;7352479;32;20137;-57
2023/06/30 07:08:59;;;;;;;7.55;1.98;;;16.60;99.90;;;;;;7346465;32;20230;-57
2023/06/30 07:13:02;;;;;;;7.30;1.90;;;16.50;99.90;;;;;;7354263;32;20135;-60
2023/06/30 07:17:05;;;;;;;5.10;1.40;;;16.40;99.90;;;;;;7355520;32;20115;-59
2023/06/30 07:21:06;;;;;;;15.43;2.42;;;16.30;99.90;;;;;;7345803;32;20163;-60
2023/06/30 07:25:08;;;;;;;7.10;1.95;;;16.30;99.90;;;;;;7347245;32;20108;-60
2023/06/30 07:29:10;;;;;;;5.90;1.83;;;16.30;99.90;;;;;;7345697;32;20589;-62
2023/06/30 07:33:12;;;;;;;7.22;1.90;;;16.20;99.90;;;;;;7348434;32;20258;-60
2023/06/30 07:37:14;;;;;;;7.47;1.85;;;16.10;99.90;;;;;;7346724;32;20344;-60
2023/06/30 07:41:16;;;;;;;9.05;2.03;;;16.30;99.90;;;;;;7349495;32;20108;-59
2023/06/30 07:45:18;;;;;;;6.62;1.70;;;16.20;99.90;;;;;;7349793;32;20112;-59
2023/06/30 07:49:21;;;;;;;8.50;2.08;;;16.40;99.90;;;;;;7347922;32;20145;-59
2023/06/30 07:53:23;;;;;;;8.00;2.15;;;16.50;99.90;;;;;;7337063;32;20212;-59
2023/06/30 07:57:26;;;;;;;10.35;2.10;;;16.50;99.90;;;;;;7353293;32;20107;-59
2023/06/30 08:01:27;;;;;;;8.23;2.00;;;16.90;99.90;;;;;;7338680;32;20270;-61
2023/06/30 08:05:29;;;;;;;8.35;1.92;;;16.90;99.90;;;;;;7347492;32;20111;-57
2023/06/30 08:09:32;;;;;;;7.30;1.77;;;17.20;99.90;;;;;;7350119;32;20175;-56
2023/06/30 08:13:34;;;;;;;6.35;1.73;;;17.30;99.90;;;;;;7350550;32;20107;-56
2023/06/30 08:17:36;;;;;;;9.27;1.67;;;17.30;99.90;;;;;;7340518;32;20652;-57
2023/06/30 08:21:58;;;;;;;4.72;1.23;;;17.40;99.90;;;;;;7349851;32;20547;-57
2023/06/30 08:25:59;;;;;;;4.93;1.20;;;17.60;99.90;;;;;;7350198;32;20546;-56
2023/06/30 08:30:01;;;;;;;4.25;1.10;;;17.80;99.90;;;;;;7352660;32;20119;-56
2023/06/30 08:34:04;;;;;;;4.97;1.27;;;18.10;99.90;;;;;;7351310;32;20624;-57
2023/06/30 08:38:06;;;;;;;3.67;1.08;;;18.40;99.90;;;;;;7346697;32;20297;-56
2023/06/30 08:42:10;;;;;;;4.07;0.90;;;18.50;99.90;;;;;;7347165;32;20160;-62
2023/06/30 08:46:16;;;;;;;2.15;0.90;;;18.70;99.90;;;;;;7352635;32;20107;-58
2023/06/30 08:50:20;;;;;;;4.00;0.90;;;18.70;99.90;;;;;;7344363;32;20317;-58
2023/06/30 08:54:27;;;;;;;6.65;0.93;;;19.20;99.90;;;;;;7354213;32;20133;-60
2023/06/30 08:58:29;;;;;;;;;;;19.70;99.90;;;;;;7347627;32;20133;-57
2023/06/30 09:02:31;;;;;;;6.40;1.10;;;20.20;99.90;;;;;;7351674;32;20038;-57
2023/06/30 09:06:37;;;;;;;5.18;0.80;;;20.90;99.90;;;;;;7349922;32;20221;-56
2023/06/30 09:10:41;;;;;;;6.22;1.00;;;20.80;99.90;;;;;;7349869;32;20119;-57
2023/06/30 09:14:45;;;;;;;4.03;0.98;;;20.80;99.90;;;;;;7349744;32;20213;-60
2023/06/30 09:18:48;;;;;;;2.67;0.80;;;20.90;99.90;;;;;;7349172;32;20190;-57
2023/06/30 09:22:50;;;;;;;4.45;0.70;;;21.30;99.90;;;;;;7349932;32;20233;-56
2023/06/30 09:26:58;;;;;;;4.28;0.80;;;21.80;99.90;;;;;;7353998;32;20111;-57
2023/06/30 09:31:02;;;;;;;5.37;0.90;;;21.60;99.90;;;;;;7352240;32;20191;-55
2023/06/30 09:35:06;;;;;;;2.80;0.70;;;21.90;99.90;;;;;;7354656;32;20645;-60
2023/06/30 09:39:08;;;;;;;4.30;0.90;;;22.30;99.90;;;;;;7354312;32;20134;-58
2023/06/30 09:43:21;;;;;;;3.20;0.85;;;22.70;99.90;;;;;;7344315;32;20103;-57
2023/06/30 09:47:26;;;;;;;2.78;0.70;;;23.40;99.90;;;;;;7348343;32;20465;-57
2023/06/30 09:51:31;;;;;;;1.50;0.65;;;23.90;99.90;;;;;;7348094;32;20474;-57
2023/06/30 09:55:48;;;;;;;3.97;0.90;;;23.80;95.10;;;;;;7346709;32;20210;-58
2023/06/30 09:59:50;;;;;;;2.50;0.80;;;23.80;98.00;;;;;;7352060;32;20123;-61
2023/06/30 10:03:55;;;;;;;3.78;0.70;;;24.00;99.90;;;;;;7336063;32;20557;-56
2023/06/30 10:08:01;;;;;;;2.28;0.70;;;24.40;98.60;;;;;;7341412;32;20098;-57
2023/06/30 10:12:03;;;;;;;2.42;0.73;;;24.60;96.40;;;;;;7347746;32;20175;-56
2023/06/30 10:16:06;;;;;;;4.72;0.88;;;23.90;95.30;;;;;;7346362;32;20163;-58
2023/06/30 10:20:08;;;;;;;3.87;0.80;;;23.20;97.40;;;;;;7344426;32;20110;-61
2023/06/30 10:24:11;;;;;;;2.92;0.80;;;22.60;98.90;;;;;;7347192;32;20212;-57
2023/06/30 10:28:14;;;;;;;3.25;0.60;;;22.30;99.90;;;;;;7346717;32;20203;-57
2023/06/30 10:32:20;;;;;;;3.28;0.80;;;22.30;99.90;;;;;;7346255;32;20250;-57
2023/06/30 10:36:24;;;;;;;5.50;1.10;;;22.00;99.20;;;;;;7345416;32;20669;-57
2023/06/30 10:40:30;;;;;;;3.35;0.98;;;21.70;99.20;;;;;;7342053;32;20316;-58
2023/06/30 10:44:38;;;;;;;2.25;1.00;;;22.10;99.90;;;;;;7345934;32;20111;-58
2023/06/30 10:48:40;;;;;;;5.60;0.90;;;22.70;99.50;;;;;;7345928;32;20130;-54
2023/06/30 10:52:50;;;;;;;5.55;1.10;;;22.60;99.90;;;;;;7355984;32;20664;-56
2023/06/30 10:57:10;;;;;;;4.28;1.08;;;22.30;99.90;;;;;;7355508;32;20135;-53
2023/06/30 11:01:14;;;;;;;2.62;1.02;;;21.90;98.60;;;;;;7355991;32;20114;-56
2023/06/30 11:05:29;;;;;;;4.15;1.05;;;21.70;99.90;;;;;;7346956;32;20186;-56
2023/06/30 11:09:49;;;;;;;4.55;1.30;;;22.80;99.90;;;;;;7356371;32;20696;-56
2023/06/30 11:14:04;;;;;;;3.05;1.00;;;23.50;98.40;;;;;;7351201;32;20138;-56
2023/06/30 11:18:19;;;;;;;2.87;1.10;;;23.30;97.00;;;;;;7352145;32;20263;-54
2023/06/30 11:22:22;;;;;;;3.03;0.90;;;22.90;99.80;;;;;;7351273;32;20155;-55
2023/06/30 11:26:24;;;;;;;3.55;1.15;;;23.10;99.30;;;;;;7357694;32;20214;-55
2023/06/30 11:30:26;;;;;;;3.25;1.05;;;22.90;99.90;;;;;;7352431;32;20190;-57
2023/06/30 11:34:28;;;;;;;3.55;1.08;;;23.00;99.90;;;;;;7354760;32;20133;-58
2023/06/30 11:38:29;;;;;;;6.78;1.23;;;22.80;99.90;;;;;;7346740;32;20167;-54
2023/06/30 11:42:36;;;;;;;4.07;0.98;;;22.90;99.90;;;;;;7355399;32;20167;-54
2023/06/30 11:46:38;;;;;;;3.15;1.05;;;22.90;99.90;;;;;;7351383;32;20107;-54
2023/06/30 11:50:41;;;;;;;6.22;1.30;;;22.50;99.90;;;;;;7353500;32;20104;-53
2023/06/30 11:54:43;;;;;;;4.40;1.05;;;22.30;99.90;;;;;;7354691;32;20559;-58
2023/06/30 11:58:50;;;;;;;2.75;0.90;;;22.10;99.90;;;;;;7353858;32;20528;-53
2023/06/30 12:02:52;;;;;;;4.20;1.02;;;22.00;99.90;;;;;;7352204;32;20469;-54
2023/06/30 12:06:55;;;;;;;3.75;0.75;;;22.40;99.90;;;;;;7355628;32;20679;-55
2023/06/30 12:10:56;;;;;;;3.70;1.17;;;22.90;98.30;;;;;;7352214;32;20099;-54
2023/06/30 12:15:02;;;;;;;5.03;0.80;;;22.70;99.80;;;;;;7356186;32;20108;-55
2023/06/30 12:19:08;;;;;;;6.30;1.12;;;22.10;99.90;;;;;;7348819;32;20738;-54
2023/06/30 12:23:10;;;;;;;5.10;1.02;;;22.00;99.90;;;;;;7351088;32;20140;-55
2023/06/30 12:27:12;;;;;;;5.37;1.08;;;21.90;99.90;;;;;;7344137;32;20222;-55
2023/06/30 12:31:14;;;;;;;3.83;0.85;;;21.90;99.90;;;;;;7342427;32;20683;-53
2023/06/30 12:35:31;;;;;;;3.85;1.33;;;22.50;99.90;;;;;;7351879;32;20501;-58
2023/06/30 12:39:33;;;;;;;4.60;1.23;;;23.60;99.90;;;;;;7335650;32;20235;-56
2023/06/30 12:43:34;;;;;;;4.60;1.02;;;24.10;96.60;;;;;;7350053;32;20285;-56
2023/06/30 12:47:36;;;;;;;4.40;1.10;;;24.50;96.90;;;;;;7353350;32;20119;-59
2023/06/30 12:51:39;;;;;;;4.53;1.10;;;24.60;97.20;;;;;;7353841;32;20230;-57
2023/06/30 12:55:41;;;;;;;6.70;1.50;;;25.00;95.00;;;;;;7342748;32;20134;-56
2023/06/30 12:59:43;;;;;;;6.10;1.20;;;24.60;94.40;;;;;;7351068;32;20194;-56
2023/06/30 13:03:46;;;;;;;5.05;1.50;;;24.60;95.80;;;;;;7352762;32;20193;-54
2023/06/30 13:07:48;;;;;;;4.70;1.48;;;24.30;94.00;;;;;;7346386;32;20497;-57
2023/06/30 13:11:50;;;;;;;3.92;1.10;;;23.30;96.50;;;;;;7347359;32;20101;-55
2023/06/30 13:15:51;;;;;;;4.82;1.10;;;22.60;98.60;;;;;;7340981;32;20126;-61
2023/06/30 13:19:53;;;;;;;3.08;1.02;;;23.00;98.30;;;;;;7344171;32;20115;-56
2023/06/30 13:23:55;;;;;;;5.12;1.40;;;23.80;99.60;;;;;;7341426;32;20281;-57
2023/06/30 13:27:57;;;;;;;6.15;1.62;;;24.00;96.80;;;;;;7352920;32;20683;-55
2023/06/30 13:31:59;;;;;;;3.78;1.60;;;23.90;98.10;;;;;;7337576;32;20636;-58
2023/06/30 13:36:01;;;;;;;7.45;1.90;;;23.90;95.80;;;;;;7335793;32;20111;-58
2023/06/30 13:40:03;;;;;;;4.82;1.60;;;23.80;94.00;;;;;;7353268;32;20294;-55
2023/06/30 13:44:05;;;;;;;4.50;1.30;;;24.00;96.50;;;;;;7350761;32;20830;-55
2023/06/30 13:48:07;;;;;;;4.43;1.40;;;24.10;94.50;;;;;;7345168;32;20567;-56
2023/06/30 13:52:09;;;;;;;5.37;1.60;;;24.50;98.60;;;;;;7346757;32;20103;-55
2023/06/30 13:56:11;;;;;;;2.30;1.12;;;24.50;94.20;;;;;;7349463;32;20573;-55
2023/06/30 14:00:13;;;;;;;4.47;1.40;;;24.40;94.00;;;;;;7349382;32;20162;-55
2023/06/30 14:04:16;;;;;;;3.70;1.37;;;24.40;94.00;;;;;;7352667;32;20198;-56
2023/06/30 14:08:21;;;;;;;7.00;1.50;;;23.60;93.80;;;;;;7355800;32;20255;-57
2023/06/30 14:12:23;;;;;;;3.60;1.12;;;23.30;95.70;;;;;;7349247;32;20141;-57
2023/06/30 14:16:24;;;;;;;4.00;1.20;;;23.60;93.20;;;;;;7344239;32;20416;-56
2023/06/30 14:20:26;;;;;;;4.82;1.50;;;23.80;92.90;;;;;;7346268;32;20108;-56
2023/06/30 14:24:28;;;;;;;6.82;1.35;;;24.40;91.80;;;;;;7327590;32;20201;-56
2023/06/30 14:28:30;;;;;;;4.10;1.30;;;24.00;91.00;;;;;;7353048;32;20187;-56
2023/06/30 14:32:31;;;;;;;3.87;1.23;;;24.10;92.60;;;;;;7352126;32;20116;-57
2023/06/30 14:36:33;;;;;;;3.72;1.20;;;24.10;92.70;;;;;;7346050;32;20139;-57
2023/06/30 14:40:35;;;;;;;3.50;1.30;;;24.40;92.60;;;;;;7353934;32;20331;-56
2023/06/30 14:44:37;;;;;;;3.40;1.30;;;24.40;93.10;;;;;;7350392;32;20147;-56
2023/06/30 14:48:40;;;;;;;4.97;2.03;;;24.60;90.40;;;;;;7357385;32;20537;-56
2023/06/30 14:52:42;;;;;;;4.95;1.55;;;24.60;87.30;;;;;;7344309;32;20137;-59
2023/06/30 14:56:43;;;;;;;4.65;1.60;;;24.70;90.40;;;;;;7347859;32;20147;-56
2023/06/30 15:00:45;;;;;;;2.92;1.40;;;24.70;89.40;;;;;;7342470;32;20107;-57
2023/06/30 15:04:48;;;;;;;3.22;1.58;;;24.80;88.00;;;;;;7340463;32;20338;-56
2023/06/30 15:08:50;;;;;;;4.65;1.37;;;24.80;85.20;;;;;;7355305;32;20119;-57
2023/06/30 15:12:52;;;;;;;5.22;1.40;;;24.40;90.50;;;;;;7350837;32;20513;-57
2023/06/30 15:16:54;;;;;;;5.47;1.45;;;24.50;87.10;;;;;;7357196;32;20107;-56
2023/06/30 15:20:55;;;;;;;3.50;1.50;;;24.50;89.80;;;;;;7347163;32;20198;-60
2023/06/30 15:24:58;;;;;;;2.87;1.20;;;24.20;90.30;;;;;;7335583;32;20167;-57
2023/06/30 15:29:00;;;;;;;4.35;1.70;;;24.10;91.50;;;;;;7349847;32;20102;-58
2023/06/30 15:33:06;;;;;;;4.00;1.30;;;23.80;88.40;;;;;;7352146;32;20107;-57
2023/06/30 15:37:08;;;;;;;4.28;1.58;;;23.40;93.30;;;;;;7343423;32;20169;-57
2023/06/30 15:41:11;;;;;;;4.85;1.58;;;23.30;91.20;;;;;;7350579;32;20150;-60
2023/06/30 15:45:23;;;;;;;2.90;1.45;;;23.20;91.80;;;;;;7351367;32;20182;-56
2023/06/30 15:49:25;;;;;;;6.93;1.92;;;23.00;92.30;;;;;;7349128;32;20284;-56
2023/06/30 15:53:27;;;;;;;4.15;1.40;;;22.90;91.90;;;;;;7351490;32;20173;-58
2023/06/30 15:57:29;;;;;;;6.22;1.40;;;22.70;93.40;;;;;;7345880;32;20226;-56
2023/06/30 16:01:30;;;;;;;5.30;1.37;;;22.60;94.50;;;;;;7342661;32;20167;-59
2023/06/30 16:05:32;;;;;;;3.72;1.15;;;22.10;93.30;;;;;;7351365;32;20107;-56
2023/06/30 16:09:34;;;;;;;3.45;1.00;;;21.80;93.80;;;;;;7348741;32;20168;-56
2023/06/30 16:13:36;;;;;;;4.07;1.33;;;21.80;94.10;;;;;;7339590;32;20603;-58
2023/06/30 16:17:37;;;;;;;3.85;1.52;;;21.90;95.20;;;;;;7353757;32;20115;-57
2023/06/30 16:21:39;;;;;;;2.90;1.00;;;22.10;94.70;;;;;;7351063;32;20222;-56
2023/06/30 16:25:41;;;;;;;3.78;1.33;;;22.20;94.90;;;;;;7351035;32;20329;-56
2023/06/30 16:29:43;;;;;;;4.60;1.40;;;22.30;94.00;;;;;;7352477;32;20115;-55
2023/06/30 16:33:45;;;;;;;2.60;1.12;;;22.30;91.20;;;;;;7346276;32;20159;-57
2023/06/30 16:37:47;;;;;;;4.07;1.30;;;22.30;93.50;;;;;;7343033;32;20488;-56
2023/06/30 16:41:48;;;;;;;3.65;1.20;;;22.10;93.70;;;;;;7351600;32;20160;-56
2023/06/30 16:45:53;;;;;;;3.08;1.17;;;22.00;92.70;;;;;;7348115;32;20230;-56
2023/06/30 16:49:55;;;;;;;2.17;1.27;;;21.90;93.80;;;;;;7342879;32;20403;-57
2023/06/30 16:53:56;;;;;;;3.10;1.37;;;21.90;94.90;;;;;;7347726;32;20100;-57
2023/06/30 16:58:00;;;;;;;4.40;1.08;;;21.70;96.90;;;;;;7346246;32;20544;-57
2023/06/30 17:02:01;;;;;;;6.20;1.40;;;21.70;93.60;;;;;;7346136;32;20234;-56
2023/06/30 17:06:03;;;;;;;5.65;1.48;;;21.70;93.80;;;;;;7349084;32;20107;-57
2023/06/30 17:10:06;;;;;;;3.85;1.12;;;21.60;94.40;;;;;;7338119;32;20195;-56
2023/06/30 17:14:08;;;;;;;7.22;1.60;;;21.50;95.30;;;;;;7346032;32;20497;-57
2023/06/30 17:18:09;;;;;;;5.68;1.85;;;21.40;94.60;;;;;;7352899;32;20126;-56
2023/06/30 17:22:11;;;;;;;4.82;2.10;;;21.30;96.00;;;;;;7348178;32;20106;-56
2023/06/30 17:26:13;;;;;;;4.28;1.40;;;21.10;96.30;;;;;;7353446;32;20119;-56
2023/06/30 17:30:14;;;;;;;6.47;1.48;;;21.10;97.10;;;;;;7361378;32;20110;-57
2023/06/30 17:34:16;;;;;;;4.12;1.35;;;21.20;98.20;;;;;;7355321;32;20218;-56
2023/06/30 17:38:18;;;;;;;6.68;1.92;;;21.40;96.00;;;;;;7354844;32;20165;-61
2023/06/30 17:42:20;;;;;;;4.85;1.70;;;21.50;95.40;;;;;;7361068;32;20174;-57
2023/06/30 17:46:22;;;;;;;5.87;1.70;;;21.40;94.40;;;;;;7359364;32;20157;-57
2023/06/30 17:50:25;;;;;;;4.85;1.90;;;21.30;96.50;;;;;;7358171;32;20536;-56
2023/06/30 17:54:28;;;;;;;3.35;1.50;;;21.20;95.60;;;;;;7352308;32;20228;-55
2023/06/30 17:58:30;;;;;;;4.85;1.60;;;21.10;96.70;;;;;;7355228;32;20186;-58
2023/06/30 18:02:32;;;;;;;4.20;1.85;;;21.00;96.70;;;;;;7358958;32;20123;-56
2023/06/30 18:06:57;;;;;;;3.20;1.85;;;20.90;98.80;;;;;;7358626;32;20557;-57
2023/06/30 18:10:58;;;;;;;4.57;1.98;;;20.80;97.90;;;;;;7361357;32;20107;-59
2023/06/30 18:15:11;;;;;;;5.18;1.90;;;20.70;99.10;;;;;;7356442;32;20111;-57
2023/06/30 18:19:16;;;;;;;4.12;1.70;;;20.50;99.90;;;;;;7360752;32;20307;-56
2023/06/30 18:23:18;;;;;;;5.30;1.95;;;20.50;99.70;;;;;;7356110;32;20155;-56
2023/06/30 18:27:19;;;;;;;3.55;1.60;;;20.30;99.90;;;;;;7359152;32;20110;-57
2023/06/30 18:31:21;;;;;;;9.02;2.30;;;20.30;99.90;;;;;;7350394;32;20185;-56
2023/06/30 18:35:23;;;;;;;7.40;1.80;;;20.20;99.90;;;;;;7360632;32;20234;-55
2023/06/30 18:39:25;;;;;;;8.52;1.65;;;20.20;99.90;;;;;;7352920;32;20463;-57
2023/06/30 18:43:27;;;;;;;3.00;1.60;;;20.20;99.90;;;;;;7352622;32;20620;-56
2023/06/30 18:47:28;;;;;;;3.37;1.60;;;20.00;99.90;;;;;;7350411;32;20115;-56
2023/06/30 18:51:30;;;;;;;4.32;1.60;;;20.00;99.90;;;;;;7338370;32;20586;-59
2023/06/30 18:55:32;;;;;;;9.82;2.45;;;19.80;99.90;;;;;;7356727;32;20183;-57
2023/06/30 18:59:33;;;;;;;3.37;1.70;;;19.70;99.90;;;;;;7350429;32;20543;-57
2023/06/30 19:03:35;;;;;;;4.40;1.87;;;19.70;99.90;;;;;;7351555;32;20767;-57
2023/06/30 19:07:37;;;;;;;4.12;1.83;;;19.60;99.90;;;;;;7352213;32;20193;-58
2023/06/30 19:11:39;;;;;;;3.58;1.58;;;19.70;99.90;;;;;;7349585;32;20134;-57
2023/06/30 19:15:40;;;;;;;3.17;1.58;;;19.60;99.90;;;;;;7350192;32;20179;-57
2023/06/30 19:19:44;;;;;;;6.03;1.70;;;19.40;99.90;;;;;;7343441;32;20108;-58
2023/06/30 19:23:46;;;;;;;2.62;1.60;;;19.30;99.90;;;;;;7351651;32;20107;-56
2023/06/30 19:27:48;;;;;;;3.92;1.50;;;19.20;99.90;;;;;;7350756;32;20138;-56
2023/06/30 19:31:49;;;;;;;4.75;1.85;;;19.10;99.90;;;;;;7349440;32;20111;-57
2023/06/30 19:35:51;;;;;;;5.37;2.10;;;18.90;99.90;;;;;;7348325;32;20268;-56
2023/06/30 19:39:53;;;;;;;4.32;1.80;;;18.90;99.90;;;;;;7356095;32;20153;-56
2023/06/30 19:43:55;;;;;;;4.50;1.80;;;18.70;99.90;;;;;;7354514;32;20303;-56
2023/06/30 19:47:56;;;;;;;4.97;1.87;;;18.50;99.90;;;;;;7354073;32;20555;-56
2023/06/30 19:51:58;;;;;;;3.90;2.10;;;18.40;99.90;;;;;;7352133;32;20143;-56
2023/06/30 19:56:00;;;;;;;7.30;2.33;;;18.30;99.90;;;;;;7356075;32;20518;-56
2023/06/30 20:00:02;;;;;;;4.25;2.33;;;18.20;99.90;;;;;;7353393;32;20708;-56
2023/06/30 20:04:03;;;;;;;8.32;2.60;;;18.10;99.90;;;;;;7351313;32;20537;-55
2023/06/30 20:08:05;;;;;;;7.35;2.70;;;18.00;99.90;;;;;;7347150;32;20149;-56
2023/06/30 20:12:07;;;;;;;4.80;2.78;;;17.80;99.90;;;;;;7348568;32;20239;-55
2023/06/30 20:16:09;;;;;;;4.82;2.60;;;17.70;99.90;;;;;;7344808;32;20152;-55
2023/06/30 20:20:14;;;;;;;5.12;2.62;;;17.50;99.90;;;;;;7350125;32;20169;-56
2023/06/30 20:24:16;;;;;;;5.82;2.65;;;17.40;99.90;;;;;;7350931;32;20222;-55
2023/06/30 20:28:19;;;;;;;8.57;2.97;;;17.20;99.90;;;;;;7350523;32;20156;-55
2023/06/30 20:32:21;;;;;;;8.18;2.92;;;17.10;99.90;;;;;;7356201;32;20112;-55
2023/06/30 20:36:22;;;;;;;7.18;2.50;;;16.90;99.90;;;;;;7351470;32;20166;-54
2023/06/30 20:40:24;;;;;;;5.30;2.67;;;16.80;99.90;;;;;;7347000;32;20226;-56
2023/06/30 20:44:26;;;;;;;3.92;2.53;;;16.70;99.90;;;;;;7348521;32;20123;-54
2023/06/30 20:48:28;;;;;;;6.25;2.80;;;16.70;99.90;;;;;;7348995;32;20207;-55
2023/06/30 20:52:29;;;;;;;7.00;2.60;;;16.70;99.90;;;;;;7350080;32;20123;-54
2023/06/30 20:56:32;;;;;;;6.55;2.75;;;16.60;99.90;;;;;;7349290;32;20139;-54
2023/06/30 21:00:33;;;;;;;5.57;2.53;;;16.60;99.90;;;;;;7349651;32;20152;-54